sensor_id;sensor_type;location;lat;lon;timestamp;P1;durP1;ratioP1;P2;durP2;ratioP2
9722;SDS011;4900;49.306;8.500;2023-09-19T00:02:16;3.42;;;1.65;;
9722;SDS011;4900;49.306;8.500;2023-09-19T00:04:42;1.75;;;1.50;;
9722;SDS011;4900;49.306;8.500;2023-09-19T00:07:08;4.03;;;1.70;;
9722;SDS011;4900;49.306;8.500;2023-09-19T00:09:37;3.95;;;1.58;;
9722;SDS011;4900;49.306;8.500;2023-09-19T00:12:06;3.85;;;1.40;;
9722;SDS011;4900;49.306;8.500;2023-09-19T00:14:34;1.92;;;1.58;;
9722;SDS011;4900;49.306;8.500;2023-09-19T00:17:00;3.33;;;1.85;;
9722;SDS011;4900;49.306;8.500;2023-09-19T00:19:33;3.38;;;1.58;;
9722;SDS011;4900;49.306;8.500;2023-09-19T00:21:59;3.90;;;1.60;;
9722;SDS011;4900;49.306;8.500;2023-09-19T00:24:24;4.32;;;1.40;;
9722;SDS011;4900;49.306;8.500;2023-09-19T00:26:50;3.03;;;1.75;;
9722;SDS011;4900;49.306;8.500;2023-09-19T00:29:15;2.72;;;1.70;;
9722;SDS011;4900;49.306;8.500;2023-09-19T00:31:44;2.00;;;1.60;;
9722;SDS011;4900;49.306;8.500;2023-09-19T00:34:10;3.83;;;2.00;;
9722;SDS011;4900;49.306;8.500;2023-09-19T00:36:36;2.10;;;1.88;;
9722;SDS011;4900;49.306;8.500;2023-09-19T00:39:04;3.22;;;1.92;;
9722;SDS011;4900;49.306;8.500;2023-09-19T00:41:31;5.00;;;1.98;;
9722;SDS011;4900;49.306;8.500;2023-09-19T00:43:57;2.60;;;1.50;;
9722;SDS011;4900;49.306;8.500;2023-09-19T00:46:23;3.17;;;1.60;;
9722;SDS011;4900;49.306;8.500;2023-09-19T00:48:49;3.20;;;1.42;;
9722;SDS011;4900;49.306;8.500;2023-09-19T00:51:14;2.42;;;1.50;;
9722;SDS011;4900;49.306;8.500;2023-09-19T00:53:44;2.20;;;1.40;;
9722;SDS011;4900;49.306;8.500;2023-09-19T00:56:11;2.38;;;1.70;;
9722;SDS011;4900;49.306;8.500;2023-09-19T00:58:37;3.50;;;1.80;;
9722;SDS011;4900;49.306;8.500;2023-09-19T01:01:03;4.32;;;1.73;;
9722;SDS011;4900;49.306;8.500;2023-09-19T01:03:32;4.30;;;1.50;;
9722;SDS011;4900;49.306;8.500;2023-09-19T01:05:59;2.55;;;1.80;;
9722;SDS011;4900;49.306;8.500;2023-09-19T01:08:25;2.67;;;1.60;;
9722;SDS011;4900;49.306;8.500;2023-09-19T01:10:59;2.28;;;1.65;;
9722;SDS011;4900;49.306;8.500;2023-09-19T01:13:48;1.88;;;1.40;;
9722;SDS011;4900;49.306;8.500;2023-09-19T01:16:35;3.50;;;1.80;;
9722;SDS011;4900;49.306;8.500;2023-09-19T01:19:33;3.25;;;1.70;;
9722;SDS011;4900;49.306;8.500;2023-09-19T01:22:26;5.13;;;1.77;;
9722;SDS011;4900;49.306;8.500;2023-09-19T01:30:43;2.88;;;1.50;;
9722;SDS011;4900;49.306;8.500;2023-09-19T01:33:09;3.40;;;1.70;;
9722;SDS011;4900;49.306;8.500;2023-09-19T01:35:39;2.75;;;1.50;;
9722;SDS011;4900;49.306;8.500;2023-09-19T01:38:08;2.30;;;1.50;;
9722;SDS011;4900;49.306;8.500;2023-09-19T01:40:43;3.05;;;1.60;;
9722;SDS011;4900;49.306;8.500;2023-09-19T01:43:27;2.38;;;1.60;;
9722;SDS011;4900;49.306;8.500;2023-09-19T01:46:02;5.00;;;1.88;;
9722;SDS011;4900;49.306;8.500;2023-09-19T01:56:04;3.30;;;1.70;;
9722;SDS011;4900;49.306;8.500;2023-09-19T01:58:48;2.58;;;1.60;;
9722;SDS011;4900;49.306;8.500;2023-09-19T02:01:20;3.08;;;1.90;;
9722;SDS011;4900;49.306;8.500;2023-09-19T02:03:48;4.57;;;1.92;;
9722;SDS011;4900;49.306;8.500;2023-09-19T02:06:17;2.83;;;2.03;;
9722;SDS011;4900;49.306;8.500;2023-09-19T02:08:44;3.15;;;1.70;;
9722;SDS011;4900;49.306;8.500;2023-09-19T02:11:13;2.85;;;2.00;;
9722;SDS011;4900;49.306;8.500;2023-09-19T02:13:39;4.13;;;1.83;;
9722;SDS011;4900;49.306;8.500;2023-09-19T02:16:05;2.72;;;1.90;;
9722;SDS011;4900;49.306;8.500;2023-09-19T02:18:32;6.68;;;2.13;;
9722;SDS011;4900;49.306;8.500;2023-09-19T02:21:00;5.07;;;2.10;;
9722;SDS011;4900;49.306;8.500;2023-09-19T02:23:37;3.70;;;1.80;;
9722;SDS011;4900;49.306;8.500;2023-09-19T02:26:03;3.08;;;1.92;;
9722;SDS011;4900;49.306;8.500;2023-09-19T02:28:32;2.47;;;2.03;;
9722;SDS011;4900;49.306;8.500;2023-09-19T02:30:58;3.20;;;2.08;;
9722;SDS011;4900;49.306;8.500;2023-09-19T02:33:24;4.00;;;2.80;;
9722;SDS011;4900;49.306;8.500;2023-09-19T02:35:49;3.20;;;2.40;;
9722;SDS011;4900;49.306;8.500;2023-09-19T02:38:19;5.72;;;2.28;;
9722;SDS011;4900;49.306;8.500;2023-09-19T02:40:49;4.13;;;2.10;;
9722;SDS011;4900;49.306;8.500;2023-09-19T02:43:15;2.55;;;1.83;;
9722;SDS011;4900;49.306;8.500;2023-09-19T02:45:40;3.08;;;2.00;;
9722;SDS011;4900;49.306;8.500;2023-09-19T02:48:06;2.83;;;1.80;;
9722;SDS011;4900;49.306;8.500;2023-09-19T02:50:32;2.88;;;1.92;;
9722;SDS011;4900;49.306;8.500;2023-09-19T02:52:58;3.88;;;1.80;;
9722;SDS011;4900;49.306;8.500;2023-09-19T02:55:24;3.28;;;1.67;;
9722;SDS011;4900;49.306;8.500;2023-09-19T02:57:50;2.92;;;1.80;;
9722;SDS011;4900;49.306;8.500;2023-09-19T03:00:18;3.78;;;1.80;;
9722;SDS011;4900;49.306;8.500;2023-09-19T03:02:46;2.65;;;1.77;;
9722;SDS011;4900;49.306;8.500;2023-09-19T03:05:12;3.35;;;1.77;;
9722;SDS011;4900;49.306;8.500;2023-09-19T03:07:37;2.15;;;1.95;;
9722;SDS011;4900;49.306;8.500;2023-09-19T03:10:03;1.90;;;1.67;;
9722;SDS011;4900;49.306;8.500;2023-09-19T03:12:30;2.80;;;1.83;;
9722;SDS011;4900;49.306;8.500;2023-09-19T03:14:57;3.35;;;1.80;;
9722;SDS011;4900;49.306;8.500;2023-09-19T03:17:22;2.95;;;1.90;;
9722;SDS011;4900;49.306;8.500;2023-09-19T03:19:47;2.60;;;1.90;;
9722;SDS011;4900;49.306;8.500;2023-09-19T03:22:13;3.85;;;2.10;;
9722;SDS011;4900;49.306;8.500;2023-09-19T03:24:39;2.85;;;1.95;;
9722;SDS011;4900;49.306;8.500;2023-09-19T03:27:05;2.40;;;1.85;;
9722;SDS011;4900;49.306;8.500;2023-09-19T03:29:30;3.20;;;2.00;;
9722;SDS011;4900;49.306;8.500;2023-09-19T03:31:56;4.03;;;2.22;;
9722;SDS011;4900;49.306;8.500;2023-09-19T03:34:21;3.50;;;2.38;;
9722;SDS011;4900;49.306;8.500;2023-09-19T03:36:46;4.22;;;2.17;;
9722;SDS011;4900;49.306;8.500;2023-09-19T03:39:12;3.97;;;2.20;;
9722;SDS011;4900;49.306;8.500;2023-09-19T03:41:39;3.67;;;2.40;;
9722;SDS011;4900;49.306;8.500;2023-09-19T03:44:05;5.45;;;2.40;;
9722;SDS011;4900;49.306;8.500;2023-09-19T03:46:30;3.55;;;2.40;;
9722;SDS011;4900;49.306;8.500;2023-09-19T03:48:57;3.70;;;2.15;;
9722;SDS011;4900;49.306;8.500;2023-09-19T03:51:23;5.45;;;2.17;;
9722;SDS011;4900;49.306;8.500;2023-09-19T03:53:48;4.45;;;2.20;;
9722;SDS011;4900;49.306;8.500;2023-09-19T03:56:16;2.88;;;2.08;;
9722;SDS011;4900;49.306;8.500;2023-09-19T03:58:42;2.45;;;2.10;;
9722;SDS011;4900;49.306;8.500;2023-09-19T04:01:07;3.03;;;2.25;;
9722;SDS011;4900;49.306;8.500;2023-09-19T04:03:33;2.80;;;2.10;;
9722;SDS011;4900;49.306;8.500;2023-09-19T04:06:13;3.28;;;2.20;;
9722;SDS011;4900;49.306;8.500;2023-09-19T04:08:41;4.82;;;2.45;;
9722;SDS011;4900;49.306;8.500;2023-09-19T04:11:09;3.00;;;2.20;;
9722;SDS011;4900;49.306;8.500;2023-09-19T04:13:34;3.38;;;2.20;;
9722;SDS011;4900;49.306;8.500;2023-09-19T04:16:00;2.72;;;2.05;;
9722;SDS011;4900;49.306;8.500;2023-09-19T04:18:25;3.08;;;2.10;;
9722;SDS011;4900;49.306;8.500;2023-09-19T04:20:51;3.10;;;1.95;;
9722;SDS011;4900;49.306;8.500;2023-09-19T04:23:17;3.22;;;2.20;;
9722;SDS011;4900;49.306;8.500;2023-09-19T04:25:46;4.15;;;2.22;;
9722;SDS011;4900;49.306;8.500;2023-09-19T04:28:11;4.32;;;2.33;;
9722;SDS011;4900;49.306;8.500;2023-09-19T04:30:37;3.30;;;2.05;;
9722;SDS011;4900;49.306;8.500;2023-09-19T04:33:05;3.95;;;2.50;;
9722;SDS011;4900;49.306;8.500;2023-09-19T04:35:31;4.80;;;2.15;;
9722;SDS011;4900;49.306;8.500;2023-09-19T04:37:57;2.83;;;2.20;;
9722;SDS011;4900;49.306;8.500;2023-09-19T04:40:23;3.15;;;2.40;;
9722;SDS011;4900;49.306;8.500;2023-09-19T04:42:54;3.13;;;2.30;;
9722;SDS011;4900;49.306;8.500;2023-09-19T04:45:21;4.20;;;2.50;;
9722;SDS011;4900;49.306;8.500;2023-09-19T04:47:47;3.60;;;2.20;;
9722;SDS011;4900;49.306;8.500;2023-09-19T04:50:12;3.55;;;2.10;;
9722;SDS011;4900;49.306;8.500;2023-09-19T04:52:41;4.25;;;2.42;;
9722;SDS011;4900;49.306;8.500;2023-09-19T04:55:12;3.72;;;2.03;;
9722;SDS011;4900;49.306;8.500;2023-09-19T04:57:45;4.32;;;2.40;;
9722;SDS011;4900;49.306;8.500;2023-09-19T05:00:15;4.32;;;2.78;;
9722;SDS011;4900;49.306;8.500;2023-09-19T05:02:44;4.07;;;2.70;;
9722;SDS011;4900;49.306;8.500;2023-09-19T05:05:11;3.55;;;2.88;;
9722;SDS011;4900;49.306;8.500;2023-09-19T05:07:38;7.05;;;3.53;;
9722;SDS011;4900;49.306;8.500;2023-09-19T05:10:04;5.80;;;2.70;;
9722;SDS011;4900;49.306;8.500;2023-09-19T05:12:32;6.13;;;3.17;;
9722;SDS011;4900;49.306;8.500;2023-09-19T05:14:59;4.25;;;2.80;;
9722;SDS011;4900;49.306;8.500;2023-09-19T05:17:24;5.65;;;3.05;;
9722;SDS011;4900;49.306;8.500;2023-09-19T05:19:50;4.45;;;2.92;;
9722;SDS011;4900;49.306;8.500;2023-09-19T05:22:15;4.60;;;3.00;;
9722;SDS011;4900;49.306;8.500;2023-09-19T05:24:40;4.30;;;2.83;;
9722;SDS011;4900;49.306;8.500;2023-09-19T05:27:06;5.35;;;2.70;;
9722;SDS011;4900;49.306;8.500;2023-09-19T05:29:32;4.10;;;2.60;;
9722;SDS011;4900;49.306;8.500;2023-09-19T05:31:58;4.13;;;2.58;;
9722;SDS011;4900;49.306;8.500;2023-09-19T05:34:24;2.83;;;2.40;;
9722;SDS011;4900;49.306;8.500;2023-09-19T05:36:50;5.38;;;2.35;;
9722;SDS011;4900;49.306;8.500;2023-09-19T05:39:17;4.32;;;2.40;;
9722;SDS011;4900;49.306;8.500;2023-09-19T05:41:42;5.22;;;2.38;;
9722;SDS011;4900;49.306;8.500;2023-09-19T05:44:08;4.00;;;2.28;;
9722;SDS011;4900;49.306;8.500;2023-09-19T05:46:33;5.40;;;2.20;;
9722;SDS011;4900;49.306;8.500;2023-09-19T05:48:59;4.53;;;2.28;;
9722;SDS011;4900;49.306;8.500;2023-09-19T05:51:25;4.70;;;2.45;;
9722;SDS011;4900;49.306;8.500;2023-09-19T05:53:54;4.80;;;2.28;;
9722;SDS011;4900;49.306;8.500;2023-09-19T05:56:20;4.07;;;2.30;;
9722;SDS011;4900;49.306;8.500;2023-09-19T05:58:45;4.95;;;2.50;;
9722;SDS011;4900;49.306;8.500;2023-09-19T06:01:11;5.72;;;2.50;;
9722;SDS011;4900;49.306;8.500;2023-09-19T06:03:36;3.40;;;2.17;;
9722;SDS011;4900;49.306;8.500;2023-09-19T06:06:02;4.05;;;2.15;;
9722;SDS011;4900;49.306;8.500;2023-09-19T06:08:29;3.42;;;2.00;;
9722;SDS011;4900;49.306;8.500;2023-09-19T06:10:55;7.30;;;2.30;;
9722;SDS011;4900;49.306;8.500;2023-09-19T06:13:21;3.00;;;1.95;;
9722;SDS011;4900;49.306;8.500;2023-09-19T06:15:46;6.30;;;2.25;;
9722;SDS011;4900;49.306;8.500;2023-09-19T06:18:12;4.05;;;2.17;;
9722;SDS011;4900;49.306;8.500;2023-09-19T06:20:45;4.85;;;2.42;;
9722;SDS011;4900;49.306;8.500;2023-09-19T06:23:16;5.13;;;2.10;;
9722;SDS011;4900;49.306;8.500;2023-09-19T06:25:42;2.95;;;2.10;;
9722;SDS011;4900;49.306;8.500;2023-09-19T06:28:08;4.93;;;2.17;;
9722;SDS011;4900;49.306;8.500;2023-09-19T06:30:38;2.88;;;2.10;;
9722;SDS011;4900;49.306;8.500;2023-09-19T06:33:07;6.20;;;2.17;;
9722;SDS011;4900;49.306;8.500;2023-09-19T06:35:33;5.65;;;2.30;;
9722;SDS011;4900;49.306;8.500;2023-09-19T06:38:02;3.53;;;2.05;;
9722;SDS011;4900;49.306;8.500;2023-09-19T06:40:28;3.20;;;2.22;;
9722;SDS011;4900;49.306;8.500;2023-09-19T06:42:53;4.53;;;2.40;;
9722;SDS011;4900;49.306;8.500;2023-09-19T06:45:21;2.97;;;2.00;;
9722;SDS011;4900;49.306;8.500;2023-09-19T06:47:50;3.08;;;2.10;;
9722;SDS011;4900;49.306;8.500;2023-09-19T06:50:16;4.20;;;2.00;;
9722;SDS011;4900;49.306;8.500;2023-09-19T06:52:44;2.90;;;1.70;;
9722;SDS011;4900;49.306;8.500;2023-09-19T06:55:11;4.25;;;1.92;;
9722;SDS011;4900;49.306;8.500;2023-09-19T06:57:38;2.40;;;1.80;;
9722;SDS011;4900;49.306;8.500;2023-09-19T07:00:05;3.15;;;2.40;;
9722;SDS011;4900;49.306;8.500;2023-09-19T07:02:41;3.92;;;2.42;;
9722;SDS011;4900;49.306;8.500;2023-09-19T07:05:07;4.85;;;2.78;;
9722;SDS011;4900;49.306;8.500;2023-09-19T07:07:32;4.88;;;2.80;;
9722;SDS011;4900;49.306;8.500;2023-09-19T07:10:00;3.58;;;2.35;;
9722;SDS011;4900;49.306;8.500;2023-09-19T07:12:30;4.57;;;2.35;;
9722;SDS011;4900;49.306;8.500;2023-09-19T07:14:57;4.10;;;2.42;;
9722;SDS011;4900;49.306;8.500;2023-09-19T07:17:23;3.60;;;2.20;;
9722;SDS011;4900;49.306;8.500;2023-09-19T07:19:49;2.38;;;1.85;;
9722;SDS011;4900;49.306;8.500;2023-09-19T07:22:15;4.00;;;2.17;;
9722;SDS011;4900;49.306;8.500;2023-09-19T07:24:41;3.78;;;2.17;;
9722;SDS011;4900;49.306;8.500;2023-09-19T07:27:06;5.68;;;2.40;;
9722;SDS011;4900;49.306;8.500;2023-09-19T07:29:32;4.25;;;2.13;;
9722;SDS011;4900;49.306;8.500;2023-09-19T07:31:57;3.47;;;2.00;;
9722;SDS011;4900;49.306;8.500;2023-09-19T07:34:22;3.30;;;2.00;;
9722;SDS011;4900;49.306;8.500;2023-09-19T07:36:48;3.42;;;2.00;;
9722;SDS011;4900;49.306;8.500;2023-09-19T07:39:13;2.38;;;1.90;;
9722;SDS011;4900;49.306;8.500;2023-09-19T07:41:39;3.50;;;1.60;;
9722;SDS011;4900;49.306;8.500;2023-09-19T07:44:04;3.22;;;1.73;;
9722;SDS011;4900;49.306;8.500;2023-09-19T07:46:30;2.40;;;1.60;;
9722;SDS011;4900;49.306;8.500;2023-09-19T07:48:56;4.57;;;2.00;;
9722;SDS011;4900;49.306;8.500;2023-09-19T07:51:22;4.32;;;1.80;;
9722;SDS011;4900;49.306;8.500;2023-09-19T07:53:48;1.90;;;1.50;;
9722;SDS011;4900;49.306;8.500;2023-09-19T07:56:13;4.47;;;1.80;;
9722;SDS011;4900;49.306;8.500;2023-09-19T07:58:40;3.67;;;1.63;;
9722;SDS011;4900;49.306;8.500;2023-09-19T08:01:09;3.42;;;1.63;;
9722;SDS011;4900;49.306;8.500;2023-09-19T08:03:35;2.72;;;1.70;;
9722;SDS011;4900;49.306;8.500;2023-09-19T08:06:06;4.13;;;1.80;;
9722;SDS011;4900;49.306;8.500;2023-09-19T08:08:32;3.83;;;1.70;;
9722;SDS011;4900;49.306;8.500;2023-09-19T08:11:02;4.10;;;1.60;;
9722;SDS011;4900;49.306;8.500;2023-09-19T08:13:40;3.10;;;1.60;;
9722;SDS011;4900;49.306;8.500;2023-09-19T08:16:11;2.20;;;1.50;;
9722;SDS011;4900;49.306;8.500;2023-09-19T08:18:37;3.03;;;1.65;;
9722;SDS011;4900;49.306;8.500;2023-09-19T08:21:05;2.88;;;1.60;;
9722;SDS011;4900;49.306;8.500;2023-09-19T08:23:36;3.40;;;1.60;;
9722;SDS011;4900;49.306;8.500;2023-09-19T08:26:03;2.58;;;1.52;;
9722;SDS011;4900;49.306;8.500;2023-09-19T08:28:32;3.20;;;1.60;;
9722;SDS011;4900;49.306;8.500;2023-09-19T08:31:01;2.83;;;1.50;;
9722;SDS011;4900;49.306;8.500;2023-09-19T08:33:31;2.08;;;1.35;;
9722;SDS011;4900;49.306;8.500;2023-09-19T08:35:57;12.80;;;2.60;;
9722;SDS011;4900;49.306;8.500;2023-09-19T08:38:22;12.23;;;1.73;;
9722;SDS011;4900;49.306;8.500;2023-09-19T08:40:48;5.30;;;1.45;;
9722;SDS011;4900;49.306;8.500;2023-09-19T08:43:13;4.93;;;1.75;;
9722;SDS011;4900;49.306;8.500;2023-09-19T08:45:39;3.97;;;1.50;;
9722;SDS011;4900;49.306;8.500;2023-09-19T08:50:31;2.20;;;1.40;;
9722;SDS011;4900;49.306;8.500;2023-09-19T08:53:01;3.70;;;1.33;;
9722;SDS011;4900;49.306;8.500;2023-09-19T08:55:36;3.28;;;1.55;;
9722;SDS011;4900;49.306;8.500;2023-09-19T08:58:05;3.53;;;1.55;;
9722;SDS011;4900;49.306;8.500;2023-09-19T09:00:34;2.85;;;1.45;;
9722;SDS011;4900;49.306;8.500;2023-09-19T09:03:00;2.80;;;1.48;;
9722;SDS011;4900;49.306;8.500;2023-09-19T09:05:28;2.25;;;1.40;;
9722;SDS011;4900;49.306;8.500;2023-09-19T09:07:57;2.75;;;1.40;;
9722;SDS011;4900;49.306;8.500;2023-09-19T09:10:24;2.78;;;1.48;;
9722;SDS011;4900;49.306;8.500;2023-09-19T09:12:51;2.53;;;1.75;;
9722;SDS011;4900;49.306;8.500;2023-09-19T09:15:20;2.58;;;1.55;;
9722;SDS011;4900;49.306;8.500;2023-09-19T09:17:47;2.78;;;1.60;;
9722;SDS011;4900;49.306;8.500;2023-09-19T09:20:18;2.33;;;1.40;;
9722;SDS011;4900;49.306;8.500;2023-09-19T09:22:53;2.85;;;1.50;;
9722;SDS011;4900;49.306;8.500;2023-09-19T09:25:20;3.33;;;1.60;;
9722;SDS011;4900;49.306;8.500;2023-09-19T09:27:58;2.30;;;1.80;;
9722;SDS011;4900;49.306;8.500;2023-09-19T09:30:32;3.28;;;1.73;;
9722;SDS011;4900;49.306;8.500;2023-09-19T09:33:12;3.42;;;1.60;;
9722;SDS011;4900;49.306;8.500;2023-09-19T09:35:48;3.55;;;1.50;;
9722;SDS011;4900;49.306;8.500;2023-09-19T09:38:18;2.90;;;1.60;;
9722;SDS011;4900;49.306;8.500;2023-09-19T09:40:51;2.75;;;1.30;;
9722;SDS011;4900;49.306;8.500;2023-09-19T09:43:27;5.20;;;1.80;;
9722;SDS011;4900;49.306;8.500;2023-09-19T09:48:55;3.28;;;2.00;;
9722;SDS011;4900;49.306;8.500;2023-09-19T09:51:41;2.90;;;1.58;;
9722;SDS011;4900;49.306;8.500;2023-09-19T09:54:12;3.22;;;1.67;;
9722;SDS011;4900;49.306;8.500;2023-09-19T09:56:55;4.18;;;1.80;;
9722;SDS011;4900;49.306;8.500;2023-09-19T10:02:27;2.95;;;1.65;;
9722;SDS011;4900;49.306;8.500;2023-09-19T10:07:47;2.92;;;1.80;;
9722;SDS011;4900;49.306;8.500;2023-09-19T10:10:34;2.65;;;1.63;;
9722;SDS011;4900;49.306;8.500;2023-09-19T10:13:06;2.40;;;1.70;;
9722;SDS011;4900;49.306;8.500;2023-09-19T10:15:37;3.10;;;1.80;;
9722;SDS011;4900;49.306;8.500;2023-09-19T10:18:06;3.20;;;1.63;;
9722;SDS011;4900;49.306;8.500;2023-09-19T10:20:36;4.43;;;1.65;;
9722;SDS011;4900;49.306;8.500;2023-09-19T10:23:08;2.45;;;1.58;;
9722;SDS011;4900;49.306;8.500;2023-09-19T10:25:37;5.47;;;1.77;;
9722;SDS011;4900;49.306;8.500;2023-09-19T10:28:05;3.45;;;1.60;;
9722;SDS011;4900;49.306;8.500;2023-09-19T10:30:36;2.38;;;1.50;;
9722;SDS011;4900;49.306;8.500;2023-09-19T10:33:07;2.75;;;1.80;;
9722;SDS011;4900;49.306;8.500;2023-09-19T10:35:33;2.42;;;1.70;;
9722;SDS011;4900;49.306;8.500;2023-09-19T10:38:02;3.58;;;1.83;;
9722;SDS011;4900;49.306;8.500;2023-09-19T10:40:30;3.33;;;1.60;;
9722;SDS011;4900;49.306;8.500;2023-09-19T10:43:03;4.25;;;1.80;;
9722;SDS011;4900;49.306;8.500;2023-09-19T10:45:31;3.58;;;1.55;;
9722;SDS011;4900;49.306;8.500;2023-09-19T10:47:59;3.15;;;1.60;;
9722;SDS011;4900;49.306;8.500;2023-09-19T10:50:27;5.50;;;1.75;;
9722;SDS011;4900;49.306;8.500;2023-09-19T10:52:56;1.92;;;1.48;;
9722;SDS011;4900;49.306;8.500;2023-09-19T10:55:29;2.60;;;1.77;;
9722;SDS011;4900;49.306;8.500;2023-09-19T10:58:00;2.20;;;1.60;;
9722;SDS011;4900;49.306;8.500;2023-09-19T11:00:26;3.00;;;1.65;;
9722;SDS011;4900;49.306;8.500;2023-09-19T11:06:06;2.35;;;1.50;;
9722;SDS011;4900;49.306;8.500;2023-09-19T11:30:45;3.28;;;1.50;;
9722;SDS011;4900;49.306;8.500;2023-09-19T11:33:28;2.78;;;1.58;;
9722;SDS011;4900;49.306;8.500;2023-09-19T11:36:10;2.75;;;1.52;;
9722;SDS011;4900;49.306;8.500;2023-09-19T11:43:49;2.95;;;1.60;;
9722;SDS011;4900;49.306;8.500;2023-09-19T11:46:23;1.95;;;1.45;;
9722;SDS011;4900;49.306;8.500;2023-09-19T11:48:50;3.55;;;1.98;;
9722;SDS011;4900;49.306;8.500;2023-09-19T11:51:17;2.50;;;1.60;;
9722;SDS011;4900;49.306;8.500;2023-09-19T11:53:46;2.42;;;1.60;;
9722;SDS011;4900;49.306;8.500;2023-09-19T11:56:18;3.00;;;1.90;;
9722;SDS011;4900;49.306;8.500;2023-09-19T11:58:46;2.92;;;1.50;;
9722;SDS011;4900;49.306;8.500;2023-09-19T12:01:22;2.30;;;1.58;;
9722;SDS011;4900;49.306;8.500;2023-09-19T12:03:59;2.72;;;1.58;;
9722;SDS011;4900;49.306;8.500;2023-09-19T12:06:27;2.47;;;1.67;;
9722;SDS011;4900;49.306;8.500;2023-09-19T12:09:00;2.47;;;1.70;;
9722;SDS011;4900;49.306;8.500;2023-09-19T12:11:31;2.58;;;1.65;;
9722;SDS011;4900;49.306;8.500;2023-09-19T12:14:00;3.08;;;1.73;;
9722;SDS011;4900;49.306;8.500;2023-09-19T12:16:27;2.33;;;1.55;;
9722;SDS011;4900;49.306;8.500;2023-09-19T12:18:55;2.10;;;1.40;;
9722;SDS011;4900;49.306;8.500;2023-09-19T12:21:23;2.55;;;1.63;;
9722;SDS011;4900;49.306;8.500;2023-09-19T12:24:05;2.40;;;1.50;;
9722;SDS011;4900;49.306;8.500;2023-09-19T12:26:44;2.63;;;1.70;;
9722;SDS011;4900;49.306;8.500;2023-09-19T12:29:14;2.05;;;1.55;;
9722;SDS011;4900;49.306;8.500;2023-09-19T12:31:55;3.28;;;1.52;;
9722;SDS011;4900;49.306;8.500;2023-09-19T12:34:28;2.78;;;2.10;;
9722;SDS011;4900;49.306;8.500;2023-09-19T12:37:05;2.17;;;1.30;;
9722;SDS011;4900;49.306;8.500;2023-09-19T12:39:40;2.90;;;1.48;;
9722;SDS011;4900;49.306;8.500;2023-09-19T12:42:13;1.98;;;1.48;;
9722;SDS011;4900;49.306;8.500;2023-09-19T12:44:46;2.88;;;1.67;;
9722;SDS011;4900;49.306;8.500;2023-09-19T12:47:17;3.25;;;1.65;;
9722;SDS011;4900;49.306;8.500;2023-09-19T12:52:54;2.80;;;1.48;;
9722;SDS011;4900;49.306;8.500;2023-09-19T13:00:21;2.97;;;1.60;;
9722;SDS011;4900;49.306;8.500;2023-09-19T13:05:46;1.58;;;1.33;;
9722;SDS011;4900;49.306;8.500;2023-09-19T13:08:29;4.40;;;1.60;;
9722;SDS011;4900;49.306;8.500;2023-09-19T13:13:40;2.60;;;1.65;;
9722;SDS011;4900;49.306;8.500;2023-09-19T13:16:26;3.15;;;1.52;;
9722;SDS011;4900;49.306;8.500;2023-09-19T13:18:55;2.63;;;1.60;;
9722;SDS011;4900;49.306;8.500;2023-09-19T13:21:30;2.30;;;1.63;;
9722;SDS011;4900;49.306;8.500;2023-09-19T13:24:18;4.05;;;2.00;;
9722;SDS011;4900;49.306;8.500;2023-09-19T13:26:48;2.35;;;1.40;;
9722;SDS011;4900;49.306;8.500;2023-09-19T13:29:13;1.83;;;1.30;;
9722;SDS011;4900;49.306;8.500;2023-09-19T13:31:45;2.00;;;1.50;;
9722;SDS011;4900;49.306;8.500;2023-09-19T13:34:13;2.05;;;1.50;;
9722;SDS011;4900;49.306;8.500;2023-09-19T13:36:43;2.08;;;1.40;;
9722;SDS011;4900;49.306;8.500;2023-09-19T13:39:09;3.17;;;1.60;;
9722;SDS011;4900;49.306;8.500;2023-09-19T13:41:35;1.50;;;1.35;;
9722;SDS011;4900;49.306;8.500;2023-09-19T13:44:03;2.42;;;1.65;;
9722;SDS011;4900;49.306;8.500;2023-09-19T13:46:29;1.70;;;1.55;;
9722;SDS011;4900;49.306;8.500;2023-09-19T13:48:58;2.65;;;1.50;;
9722;SDS011;4900;49.306;8.500;2023-09-19T13:51:25;2.65;;;1.60;;
9722;SDS011;4900;49.306;8.500;2023-09-19T13:53:51;2.45;;;1.48;;
9722;SDS011;4900;49.306;8.500;2023-09-19T13:56:17;1.73;;;1.42;;
9722;SDS011;4900;49.306;8.500;2023-09-19T13:58:42;2.75;;;1.63;;
9722;SDS011;4900;49.306;8.500;2023-09-19T14:01:08;2.25;;;1.50;;
9722;SDS011;4900;49.306;8.500;2023-09-19T14:03:39;2.65;;;1.60;;
9722;SDS011;4900;49.306;8.500;2023-09-19T14:06:05;1.95;;;1.40;;
9722;SDS011;4900;49.306;8.500;2023-09-19T14:08:30;2.63;;;1.60;;
9722;SDS011;4900;49.306;8.500;2023-09-19T14:10:56;2.63;;;1.40;;
9722;SDS011;4900;49.306;8.500;2023-09-19T14:13:21;1.73;;;1.30;;
9722;SDS011;4900;49.306;8.500;2023-09-19T14:15:47;2.45;;;1.52;;
9722;SDS011;4900;49.306;8.500;2023-09-19T14:18:12;3.00;;;1.90;;
9722;SDS011;4900;49.306;8.500;2023-09-19T14:20:38;3.05;;;2.10;;
9722;SDS011;4900;49.306;8.500;2023-09-19T14:23:06;3.53;;;2.10;;
9722;SDS011;4900;49.306;8.500;2023-09-19T14:25:33;2.08;;;1.73;;
9722;SDS011;4900;49.306;8.500;2023-09-19T14:27:59;2.22;;;1.70;;
9722;SDS011;4900;49.306;8.500;2023-09-19T14:30:25;2.83;;;1.58;;
9722;SDS011;4900;49.306;8.500;2023-09-19T14:32:51;2.03;;;1.40;;
9722;SDS011;4900;49.306;8.500;2023-09-19T14:35:16;1.92;;;1.30;;
9722;SDS011;4900;49.306;8.500;2023-09-19T14:37:42;2.10;;;1.35;;
9722;SDS011;4900;49.306;8.500;2023-09-19T14:40:08;3.55;;;1.50;;
9722;SDS011;4900;49.306;8.500;2023-09-19T14:42:35;1.50;;;1.40;;
9722;SDS011;4900;49.306;8.500;2023-09-19T14:45:04;2.38;;;1.70;;
9722;SDS011;4900;49.306;8.500;2023-09-19T14:47:30;3.63;;;1.50;;
9722;SDS011;4900;49.306;8.500;2023-09-19T14:49:57;2.97;;;1.50;;
9722;SDS011;4900;49.306;8.500;2023-09-19T14:52:23;2.35;;;1.70;;
9722;SDS011;4900;49.306;8.500;2023-09-19T14:54:51;3.92;;;1.70;;
9722;SDS011;4900;49.306;8.500;2023-09-19T14:57:16;2.35;;;1.70;;
9722;SDS011;4900;49.306;8.500;2023-09-19T14:59:41;3.80;;;1.80;;
9722;SDS011;4900;49.306;8.500;2023-09-19T15:02:07;2.40;;;1.50;;
9722;SDS011;4900;49.306;8.500;2023-09-19T15:04:32;1.63;;;1.52;;
9722;SDS011;4900;49.306;8.500;2023-09-19T15:06:58;2.38;;;1.55;;
9722;SDS011;4900;49.306;8.500;2023-09-19T15:09:24;2.53;;;1.58;;
9722;SDS011;4900;49.306;8.500;2023-09-19T15:11:53;2.67;;;1.50;;
9722;SDS011;4900;49.306;8.500;2023-09-19T15:14:20;1.85;;;1.30;;
9722;SDS011;4900;49.306;8.500;2023-09-19T15:16:46;2.05;;;1.30;;
9722;SDS011;4900;49.306;8.500;2023-09-19T15:19:11;1.73;;;1.40;;
9722;SDS011;4900;49.306;8.500;2023-09-19T15:21:37;1.90;;;1.42;;
9722;SDS011;4900;49.306;8.500;2023-09-19T15:24:03;2.33;;;1.60;;
9722;SDS011;4900;49.306;8.500;2023-09-19T15:26:29;1.70;;;1.60;;
9722;SDS011;4900;49.306;8.500;2023-09-19T15:28:55;2.30;;;1.40;;
9722;SDS011;4900;49.306;8.500;2023-09-19T15:31:21;1.48;;;1.38;;
9722;SDS011;4900;49.306;8.500;2023-09-19T15:33:47;1.88;;;1.42;;
9722;SDS011;4900;49.306;8.500;2023-09-19T15:36:13;1.83;;;1.30;;
9722;SDS011;4900;49.306;8.500;2023-09-19T15:41:25;1.33;;;1.20;;
9722;SDS011;4900;49.306;8.500;2023-09-19T15:43:52;3.03;;;1.40;;
9722;SDS011;4900;49.306;8.500;2023-09-19T15:46:18;2.60;;;1.27;;
9722;SDS011;4900;49.306;8.500;2023-09-19T15:48:44;2.88;;;1.52;;
9722;SDS011;4900;49.306;8.500;2023-09-19T15:51:11;3.55;;;1.50;;
9722;SDS011;4900;49.306;8.500;2023-09-19T15:53:43;2.78;;;1.40;;
9722;SDS011;4900;49.306;8.500;2023-09-19T15:56:11;1.80;;;1.30;;
9722;SDS011;4900;49.306;8.500;2023-09-19T15:58:55;2.30;;;1.42;;
9722;SDS011;4900;49.306;8.500;2023-09-19T16:01:21;2.53;;;1.50;;
9722;SDS011;4900;49.306;8.500;2023-09-19T16:03:48;2.97;;;1.52;;
9722;SDS011;4900;49.306;8.500;2023-09-19T16:06:16;2.22;;;1.40;;
9722;SDS011;4900;49.306;8.500;2023-09-19T16:08:47;2.15;;;1.50;;
9722;SDS011;4900;49.306;8.500;2023-09-19T16:11:13;1.80;;;1.60;;
9722;SDS011;4900;49.306;8.500;2023-09-19T16:13:40;3.35;;;2.08;;
9722;SDS011;4900;49.306;8.500;2023-09-19T16:16:09;2.55;;;1.80;;
9722;SDS011;4900;49.306;8.500;2023-09-19T16:18:45;3.42;;;1.90;;
9722;SDS011;4900;49.306;8.500;2023-09-19T16:21:10;4.45;;;1.90;;
9722;SDS011;4900;49.306;8.500;2023-09-19T16:23:36;3.15;;;1.90;;
9722;SDS011;4900;49.306;8.500;2023-09-19T16:26:06;2.22;;;1.60;;
9722;SDS011;4900;49.306;8.500;2023-09-19T16:28:38;2.38;;;1.50;;
9722;SDS011;4900;49.306;8.500;2023-09-19T16:31:05;2.13;;;1.40;;
9722;SDS011;4900;49.306;8.500;2023-09-19T16:33:32;2.25;;;1.60;;
9722;SDS011;4900;49.306;8.500;2023-09-19T16:35:58;3.15;;;1.70;;